sensor_id;sensor_type;location;lat;lon;timestamp;temperature;humidity
79467;SHT30;68933;49.726;9.226;2023-11-21T00:00:04;10.1;79
79467;SHT30;68933;49.726;9.226;2023-11-21T00:02:16;10.1;79
79467;SHT30;68933;49.726;9.226;2023-11-21T00:04:29;10.1;79
79467;SHT30;68933;49.726;9.226;2023-11-21T00:06:42;10.1;79
79467;SHT30;68933;49.726;9.226;2023-11-21T00:08:55;10.1;79
79467;SHT30;68933;49.726;9.226;2023-11-21T00:11:08;10.1;79
79467;SHT30;68933;49.726;9.226;2023-11-21T00:13:21;10.1;79
79467;SHT30;68933;49.726;9.226;2023-11-21T00:15:34;10.1;79
79467;SHT30;68933;49.726;9.226;2023-11-21T00:17:47;10.1;79
79467;SHT30;68933;49.726;9.226;2023-11-21T00:20:00;10.1;79
79467;SHT30;68933;49.726;9.226;2023-11-21T00:22:13;10.1;79
79467;SHT30;68933;49.726;9.226;2023-11-21T00:24:26;10.1;80
79467;SHT30;68933;49.726;9.226;2023-11-21T00:28:17;10.1;80
79467;SHT30;68933;49.726;9.226;2023-11-21T00:30:29;10.1;79
79467;SHT30;68933;49.726;9.226;2023-11-21T00:32:42;10.1;79
79467;SHT30;68933;49.726;9.226;2023-11-21T00:34:55;10.2;79
79467;SHT30;68933;49.726;9.226;2023-11-21T00:37:08;10.2;79
79467;SHT30;68933;49.726;9.226;2023-11-21T00:39:21;10.2;79
79467;SHT30;68933;49.726;9.226;2023-11-21T00:41:34;10.2;79
79467;SHT30;68933;49.726;9.226;2023-11-21T00:43:47;10.2;79
79467;SHT30;68933;49.726;9.226;2023-11-21T00:46:03;10.2;79
79467;SHT30;68933;49.726;9.226;2023-11-21T00:48:13;10.2;79
79467;SHT30;68933;49.726;9.226;2023-11-21T00:50:26;10.2;79
79467;SHT30;68933;49.726;9.226;2023-11-21T00:52:39;10.2;79
79467;SHT30;68933;49.726;9.226;2023-11-21T00:54:52;10.2;79
79467;SHT30;68933;49.726;9.226;2023-11-21T00:57:05;10.2;79
79467;SHT30;68933;49.726;9.226;2023-11-21T00:59:18;10.2;79
79467;SHT30;68933;49.726;9.226;2023-11-21T01:01:31;10.3;79
79467;SHT30;68933;49.726;9.226;2023-11-21T01:03:45;10.3;79
79467;SHT30;68933;49.726;9.226;2023-11-21T01:05:57;10.3;79
79467;SHT30;68933;49.726;9.226;2023-11-21T01:08:10;10.3;79
79467;SHT30;68933;49.726;9.226;2023-11-21T01:10:23;10.3;79
79467;SHT30;68933;49.726;9.226;2023-11-21T01:12:36;10.3;79
79467;SHT30;68933;49.726;9.226;2023-11-21T01:14:49;10.3;79
79467;SHT30;68933;49.726;9.226;2023-11-21T01:17:02;10.3;79
79467;SHT30;68933;49.726;9.226;2023-11-21T01:19:15;10.3;79
79467;SHT30;68933;49.726;9.226;2023-11-21T01:21:28;10.3;79
79467;SHT30;68933;49.726;9.226;2023-11-21T01:23:41;10.3;79
79467;SHT30;68933;49.726;9.226;2023-11-21T01:25:55;10.3;79
79467;SHT30;68933;49.726;9.226;2023-11-21T01:28:07;10.3;79
79467;SHT30;68933;49.726;9.226;2023-11-21T01:30:20;10.3;79
79467;SHT30;68933;49.726;9.226;2023-11-21T01:32:33;10.4;79
79467;SHT30;68933;49.726;9.226;2023-11-21T01:34:47;10.4;79
79467;SHT30;68933;49.726;9.226;2023-11-21T01:36:59;10.4;79
79467;SHT30;68933;49.726;9.226;2023-11-21T01:39:12;10.4;79
79467;SHT30;68933;49.726;9.226;2023-11-21T01:41:25;10.4;80
79467;SHT30;68933;49.726;9.226;2023-11-21T01:43:38;10.4;80
79467;SHT30;68933;49.726;9.226;2023-11-21T01:45:51;10.4;79
79467;SHT30;68933;49.726;9.226;2023-11-21T01:48:04;10.4;79
79467;SHT30;68933;49.726;9.226;2023-11-21T01:50:17;10.4;79
79467;SHT30;68933;49.726;9.226;2023-11-21T01:52:30;10.4;79
79467;SHT30;68933;49.726;9.226;2023-11-21T01:54:43;10.4;79
79467;SHT30;68933;49.726;9.226;2023-11-21T01:56:57;10.4;79
79467;SHT30;68933;49.726;9.226;2023-11-21T01:59:09;10.4;79
79467;SHT30;68933;49.726;9.226;2023-11-21T02:01:22;10.4;79
79467;SHT30;68933;49.726;9.226;2023-11-21T02:03:35;10.4;79
79467;SHT30;68933;49.726;9.226;2023-11-21T02:05:48;10.4;79
79467;SHT30;68933;49.726;9.226;2023-11-21T02:08:01;10.4;79
79467;SHT30;68933;49.726;9.226;2023-11-21T02:10:14;10.4;79
79467;SHT30;68933;49.726;9.226;2023-11-21T02:12:27;10.4;79
79467;SHT30;68933;49.726;9.226;2023-11-21T02:14:40;10.4;79
79467;SHT30;68933;49.726;9.226;2023-11-21T02:16:53;10.5;79
79467;SHT30;68933;49.726;9.226;2023-11-21T02:19:07;10.5;79
79467;SHT30;68933;49.726;9.226;2023-11-21T02:21:19;10.5;79
79467;SHT30;68933;49.726;9.226;2023-11-21T02:23:32;10.5;79
79467;SHT30;68933;49.726;9.226;2023-11-21T02:25:45;10.4;79
79467;SHT30;68933;49.726;9.226;2023-11-21T02:27:59;10.4;79
79467;SHT30;68933;49.726;9.226;2023-11-21T02:30:11;10.4;79
79467;SHT30;68933;49.726;9.226;2023-11-21T02:32:24;10.4;79
79467;SHT30;68933;49.726;9.226;2023-11-21T02:34:37;10.4;79
79467;SHT30;68933;49.726;9.226;2023-11-21T02:36:50;10.4;80
79467;SHT30;68933;49.726;9.226;2023-11-21T02:39:03;10.4;80
79467;SHT30;68933;49.726;9.226;2023-11-21T02:41:16;10.4;79
79467;SHT30;68933;49.726;9.226;2023-11-21T02:43:29;10.4;79
79467;SHT30;68933;49.726;9.226;2023-11-21T02:45:42;10.4;79
79467;SHT30;68933;49.726;9.226;2023-11-21T02:47:55;10.4;79
79467;SHT30;68933;49.726;9.226;2023-11-21T02:50:08;10.4;79
79467;SHT30;68933;49.726;9.226;2023-11-21T02:52:21;10.4;79
79467;SHT30;68933;49.726;9.226;2023-11-21T02:54:34;10.4;79
79467;SHT30;68933;49.726;9.226;2023-11-21T02:56:47;10.4;80
79467;SHT30;68933;49.726;9.226;2023-11-21T02:59:00;10.4;80
79467;SHT30;68933;49.726;9.226;2023-11-21T03:01:13;10.4;80
79467;SHT30;68933;49.726;9.226;2023-11-21T03:03:26;10.4;80
79467;SHT30;68933;49.726;9.226;2023-11-21T03:05:39;10.4;80
79467;SHT30;68933;49.726;9.226;2023-11-21T03:07:52;10.3;80
79467;SHT30;68933;49.726;9.226;2023-11-21T03:10:06;10.3;80
79467;SHT30;68933;49.726;9.226;2023-11-21T03:12:18;10.3;80
79467;SHT30;68933;49.726;9.226;2023-11-21T03:14:31;10.3;80
79467;SHT30;68933;49.726;9.226;2023-11-21T03:16:44;10.3;80
79467;SHT30;68933;49.726;9.226;2023-11-21T03:18:57;10.3;80
79467;SHT30;68933;49.726;9.226;2023-11-21T03:21:10;10.3;80
79467;SHT30;68933;49.726;9.226;2023-11-21T03:23:23;10.3;80
79467;SHT30;68933;49.726;9.226;2023-11-21T03:25:36;10.3;80
79467;SHT30;68933;49.726;9.226;2023-11-21T03:27:49;10.3;80
79467;SHT30;68933;49.726;9.226;2023-11-21T03:30:02;10.3;80
79467;SHT30;68933;49.726;9.226;2023-11-21T03:32:15;10.3;80
79467;SHT30;68933;49.726;9.226;2023-11-21T03:34:28;10.3;80
79467;SHT30;68933;49.726;9.226;2023-11-21T03:36:41;10.3;80
79467;SHT30;68933;49.726;9.226;2023-11-21T03:38:54;10.3;80
79467;SHT30;68933;49.726;9.226;2023-11-21T03:41:07;10.3;80
79467;SHT30;68933;49.726;9.226;2023-11-21T03:43:20;10.3;80
79467;SHT30;68933;49.726;9.226;2023-11-21T03:45:33;10.3;80
79467;SHT30;68933;49.726;9.226;2023-11-21T03:47:46;10.3;80
79467;SHT30;68933;49.726;9.226;2023-11-21T03:49:59;10.4;80
79467;SHT30;68933;49.726;9.226;2023-11-21T03:52:12;10.4;80
79467;SHT30;68933;49.726;9.226;2023-11-21T03:54:25;10.4;80
79467;SHT30;68933;49.726;9.226;2023-11-21T03:56:38;10.4;80
79467;SHT30;68933;49.726;9.226;2023-11-21T03:58:51;10.4;80
79467;SHT30;68933;49.726;9.226;2023-11-21T04:01:04;10.3;81
79467;SHT30;68933;49.726;9.226;2023-11-21T04:03:17;10.3;81
79467;SHT30;68933;49.726;9.226;2023-11-21T04:05:30;10.3;80
79467;SHT30;68933;49.726;9.226;2023-11-21T04:07:43;10.3;80
79467;SHT30;68933;49.726;9.226;2023-11-21T04:09:56;10.3;80
79467;SHT30;68933;49.726;9.226;2023-11-21T04:12:09;10.3;80
79467;SHT30;68933;49.726;9.226;2023-11-21T04:14:22;10.3;80
79467;SHT30;68933;49.726;9.226;2023-11-21T04:16:35;10.3;80
79467;SHT30;68933;49.726;9.226;2023-11-21T04:18:48;10.3;80
79467;SHT30;68933;49.726;9.226;2023-11-21T04:21:01;10.4;80
79467;SHT30;68933;49.726;9.226;2023-11-21T04:23:14;10.4;80
79467;SHT30;68933;49.726;9.226;2023-11-21T04:25:27;10.4;80
79467;SHT30;68933;49.726;9.226;2023-11-21T04:27:40;10.4;80
79467;SHT30;68933;49.726;9.226;2023-11-21T04:29:53;10.3;80
79467;SHT30;68933;49.726;9.226;2023-11-21T04:32:06;10.3;80
79467;SHT30;68933;49.726;9.226;2023-11-21T04:34:19;10.3;80
79467;SHT30;68933;49.726;9.226;2023-11-21T04:36:32;10.3;80
79467;SHT30;68933;49.726;9.226;2023-11-21T04:38:45;10.3;80
79467;SHT30;68933;49.726;9.226;2023-11-21T04:40:58;10.3;81
79467;SHT30;68933;49.726;9.226;2023-11-21T04:43:11;10.3;81
79467;SHT30;68933;49.726;9.226;2023-11-21T04:45:24;10.3;81
79467;SHT30;68933;49.726;9.226;2023-11-21T04:47:37;10.3;81
79467;SHT30;68933;49.726;9.226;2023-11-21T04:49:50;10.3;81
79467;SHT30;68933;49.726;9.226;2023-11-21T04:52:03;10.3;81
79467;SHT30;68933;49.726;9.226;2023-11-21T04:54:17;10.3;81
79467;SHT30;68933;49.726;9.226;2023-11-21T04:56:29;10.4;81
79467;SHT30;68933;49.726;9.226;2023-11-21T04:58:42;10.4;81
79467;SHT30;68933;49.726;9.226;2023-11-21T05:00:55;10.4;81
79467;SHT30;68933;49.726;9.226;2023-11-21T05:03:09;10.4;81
79467;SHT30;68933;49.726;9.226;2023-11-21T05:05:21;10.4;80
79467;SHT30;68933;49.726;9.226;2023-11-21T05:07:34;10.4;80
79467;SHT30;68933;49.726;9.226;2023-11-21T05:09:47;10.4;80
79467;SHT30;68933;49.726;9.226;2023-11-21T05:12:00;10.4;80
79467;SHT30;68933;49.726;9.226;2023-11-21T05:14:13;10.4;80
79467;SHT30;68933;49.726;9.226;2023-11-21T05:16:26;10.4;80
79467;SHT30;68933;49.726;9.226;2023-11-21T05:18:39;10.4;80
79467;SHT30;68933;49.726;9.226;2023-11-21T05:20:52;10.4;80
79467;SHT30;68933;49.726;9.226;2023-11-21T05:23:05;10.4;80
79467;SHT30;68933;49.726;9.226;2023-11-21T05:25:18;10.4;80
79467;SHT30;68933;49.726;9.226;2023-11-21T05:27:31;10.4;80
79467;SHT30;68933;49.726;9.226;2023-11-21T05:29:44;10.4;80
79467;SHT30;68933;49.726;9.226;2023-11-21T05:31:57;10.4;80
79467;SHT30;68933;49.726;9.226;2023-11-21T05:34:10;10.4;80
79467;SHT30;68933;49.726;9.226;2023-11-21T05:36:23;10.4;80
79467;SHT30;68933;49.726;9.226;2023-11-21T05:38:36;10.4;80
79467;SHT30;68933;49.726;9.226;2023-11-21T05:40:49;10.4;80
79467;SHT30;68933;49.726;9.226;2023-11-21T05:43:02;10.4;80
79467;SHT30;68933;49.726;9.226;2023-11-21T05:45:15;10.4;80
79467;SHT30;68933;49.726;9.226;2023-11-21T05:47:28;10.4;80
79467;SHT30;68933;49.726;9.226;2023-11-21T05:49:41;10.4;81
79467;SHT30;68933;49.726;9.226;2023-11-21T05:51:54;10.4;81
79467;SHT30;68933;49.726;9.226;2023-11-21T05:54:07;10.4;81
79467;SHT30;68933;49.726;9.226;2023-11-21T05:56:20;10.4;81
79467;SHT30;68933;49.726;9.226;2023-11-21T05:58:33;10.4;81
79467;SHT30;68933;49.726;9.226;2023-11-21T06:00:46;10.4;81
79467;SHT30;68933;49.726;9.226;2023-11-21T06:02:59;10.4;81
79467;SHT30;68933;49.726;9.226;2023-11-21T06:05:12;10.4;80
79467;SHT30;68933;49.726;9.226;2023-11-21T06:07:25;10.4;80
79467;SHT30;68933;49.726;9.226;2023-11-21T06:09:38;10.5;80
79467;SHT30;68933;49.726;9.226;2023-11-21T06:11:51;10.5;80
79467;SHT30;68933;49.726;9.226;2023-11-21T06:14:04;10.5;80
79467;SHT30;68933;49.726;9.226;2023-11-21T06:16:17;10.4;80
79467;SHT30;68933;49.726;9.226;2023-11-21T06:18:30;10.4;80
79467;SHT30;68933;49.726;9.226;2023-11-21T06:20:43;10.4;80
79467;SHT30;68933;49.726;9.226;2023-11-21T06:22:56;10.4;80
79467;SHT30;68933;49.726;9.226;2023-11-21T06:25:09;10.4;80
79467;SHT30;68933;49.726;9.226;2023-11-21T06:27:22;10.4;81
79467;SHT30;68933;49.726;9.226;2023-11-21T06:29:35;10.4;81
79467;SHT30;68933;49.726;9.226;2023-11-21T06:31:48;10.4;80
79467;SHT30;68933;49.726;9.226;2023-11-21T06:34:01;10.4;80
79467;SHT30;68933;49.726;9.226;2023-11-21T06:36:14;10.4;81
79467;SHT30;68933;49.726;9.226;2023-11-21T06:38:27;10.4;81
79467;SHT30;68933;49.726;9.226;2023-11-21T06:40:40;10.4;81
79467;SHT30;68933;49.726;9.226;2023-11-21T06:42:53;10.4;81
79467;SHT30;68933;49.726;9.226;2023-11-21T06:45:06;10.4;81
79467;SHT30;68933;49.726;9.226;2023-11-21T06:47:19;10.4;80
79467;SHT30;68933;49.726;9.226;2023-11-21T06:49:32;10.4;80
79467;SHT30;68933;49.726;9.226;2023-11-21T06:51:45;10.4;80
79467;SHT30;68933;49.726;9.226;2023-11-21T06:53:58;10.4;80
79467;SHT30;68933;49.726;9.226;2023-11-21T06:56:18;10.4;80
79467;SHT30;68933;49.726;9.226;2023-11-21T06:58:24;10.4;81
79467;SHT30;68933;49.726;9.226;2023-11-21T07:00:37;10.4;81
79467;SHT30;68933;49.726;9.226;2023-11-21T07:02:50;10.4;81
79467;SHT30;68933;49.726;9.226;2023-11-21T07:05:03;10.4;81
79467;SHT30;68933;49.726;9.226;2023-11-21T07:07:16;10.4;81
79467;SHT30;68933;49.726;9.226;2023-11-21T07:09:29;10.3;81
79467;SHT30;68933;49.726;9.226;2023-11-21T07:11:42;10.3;81
79467;SHT30;68933;49.726;9.226;2023-11-21T07:13:55;10.4;81
79467;SHT30;68933;49.726;9.226;2023-11-21T07:16:08;10.4;81
79467;SHT30;68933;49.726;9.226;2023-11-21T07:18:21;10.4;81
79467;SHT30;68933;49.726;9.226;2023-11-21T07:20:34;10.4;81
79467;SHT30;68933;49.726;9.226;2023-11-21T07:22:47;10.4;81
79467;SHT30;68933;49.726;9.226;2023-11-21T07:25:00;10.4;81
79467;SHT30;68933;49.726;9.226;2023-11-21T07:27:13;10.4;81
79467;SHT30;68933;49.726;9.226;2023-11-21T07:29:26;10.4;81
79467;SHT30;68933;49.726;9.226;2023-11-21T07:31:39;10.4;81
79467;SHT30;68933;49.726;9.226;2023-11-21T07:33:52;10.4;81
79467;SHT30;68933;49.726;9.226;2023-11-21T07:36:05;10.4;81
79467;SHT30;68933;49.726;9.226;2023-11-21T07:38:18;10.4;81
79467;SHT30;68933;49.726;9.226;2023-11-21T07:40:31;10.4;81
79467;SHT30;68933;49.726;9.226;2023-11-21T07:42:44;10.4;81
79467;SHT30;68933;49.726;9.226;2023-11-21T07:44:57;10.4;81
79467;SHT30;68933;49.726;9.226;2023-11-21T07:47:10;10.4;81
79467;SHT30;68933;49.726;9.226;2023-11-21T07:49:23;10.4;81
79467;SHT30;68933;49.726;9.226;2023-11-21T07:51:36;10.4;81
79467;SHT30;68933;49.726;9.226;2023-11-21T07:53:49;10.4;81
79467;SHT30;68933;49.726;9.226;2023-11-21T07:56:03;10.4;81
79467;SHT30;68933;49.726;9.226;2023-11-21T07:58:15;10.4;81
79467;SHT30;68933;49.726;9.226;2023-11-21T08:00:28;10.5;81
79467;SHT30;68933;49.726;9.226;2023-11-21T08:02:41;10.5;81
79467;SHT30;68933;49.726;9.226;2023-11-21T08:04:54;10.5;81
79467;SHT30;68933;49.726;9.226;2023-11-21T08:07:07;10.5;81
79467;SHT30;68933;49.726;9.226;2023-11-21T08:09:20;10.5;81
79467;SHT30;68933;49.726;9.226;2023-11-21T08:11:33;10.5;81
79467;SHT30;68933;49.726;9.226;2023-11-21T08:13:46;10.5;81
79467;SHT30;68933;49.726;9.226;2023-11-21T08:15:59;10.5;81
79467;SHT30;68933;49.726;9.226;2023-11-21T08:18:12;10.5;81
79467;SHT30;68933;49.726;9.226;2023-11-21T08:20:25;10.6;81
79467;SHT30;68933;49.726;9.226;2023-11-21T08:22:38;10.6;81
79467;SHT30;68933;49.726;9.226;2023-11-21T08:24:51;10.7;81
79467;SHT30;68933;49.726;9.226;2023-11-21T08:27:04;10.7;81
79467;SHT30;68933;49.726;9.226;2023-11-21T08:29:17;10.7;81
79467;SHT30;68933;49.726;9.226;2023-11-21T08:31:31;10.7;81
79467;SHT30;68933;49.726;9.226;2023-11-21T08:33:43;10.7;81
79467;SHT30;68933;49.726;9.226;2023-11-21T08:35:56;10.7;81
79467;SHT30;68933;49.726;9.226;2023-11-21T08:38:09;10.7;81
79467;SHT30;68933;49.726;9.226;2023-11-21T08:40:22;10.8;81
79467;SHT30;68933;49.726;9.226;2023-11-21T08:42:35;10.8;81
79467;SHT30;68933;49.726;9.226;2023-11-21T08:44:48;10.8;81
79467;SHT30;68933;49.726;9.226;2023-11-21T08:47:01;10.8;81
79467;SHT30;68933;49.726;9.226;2023-11-21T08:49:14;10.8;80
79467;SHT30;68933;49.726;9.226;2023-11-21T08:51:27;10.8;80
79467;SHT30;68933;49.726;9.226;2023-11-21T08:53:40;10.8;80
79467;SHT30;68933;49.726;9.226;2023-11-21T08:55:53;10.8;80
79467;SHT30;68933;49.726;9.226;2023-11-21T08:58:06;10.8;80
79467;SHT30;68933;49.726;9.226;2023-11-21T09:00:19;10.9;81
79467;SHT30;68933;49.726;9.226;2023-11-21T09:02:32;10.9;81
79467;SHT30;68933;49.726;9.226;2023-11-21T09:04:45;11;80
79467;SHT30;68933;49.726;9.226;2023-11-21T09:06:58;11;80
79467;SHT30;68933;49.726;9.226;2023-11-21T09:09:11;11;81
79467;SHT30;68933;49.726;9.226;2023-11-21T09:11:24;11;81
79467;SHT30;68933;49.726;9.226;2023-11-21T09:13:37;11;80
79467;SHT30;68933;49.726;9.226;2023-11-21T09:15:50;11;80
79467;SHT30;68933;49.726;9.226;2023-11-21T09:18:03;11;80
79467;SHT30;68933;49.726;9.226;2023-11-21T09:20:16;11.1;80
79467;SHT30;68933;49.726;9.226;2023-11-21T09:22:29;11.1;80
79467;SHT30;68933;49.726;9.226;2023-11-21T09:24:42;11;80
79467;SHT30;68933;49.726;9.226;2023-11-21T09:26:55;11;80
79467;SHT30;68933;49.726;9.226;2023-11-21T09:29:08;11.2;81
79467;SHT30;68933;49.726;9.226;2023-11-21T09:31:21;11.2;81
79467;SHT30;68933;49.726;9.226;2023-11-21T09:33:34;11.2;81
79467;SHT30;68933;49.726;9.226;2023-11-21T09:35:47;11.3;80
79467;SHT30;68933;49.726;9.226;2023-11-21T09:38:00;11.3;80
79467;SHT30;68933;49.726;9.226;2023-11-21T09:40:13;11.4;80
79467;SHT30;68933;49.726;9.226;2023-11-21T09:42:29;11.4;80
79467;SHT30;68933;49.726;9.226;2023-11-21T09:44:42;11.4;80
79467;SHT30;68933;49.726;9.226;2023-11-21T09:46:52;11.4;80
79467;SHT30;68933;49.726;9.226;2023-11-21T09:49:05;11.4;80
79467;SHT30;68933;49.726;9.226;2023-11-21T09:51:19;11.4;79
79467;SHT30;68933;49.726;9.226;2023-11-21T09:53:31;11.4;79
79467;SHT30;68933;49.726;9.226;2023-11-21T09:55:45;11.4;79
79467;SHT30;68933;49.726;9.226;2023-11-21T09:57:57;11.4;79
79467;SHT30;68933;49.726;9.226;2023-11-21T10:00:10;11.4;79
79467;SHT30;68933;49.726;9.226;2023-11-21T10:02:23;11.4;79
79467;SHT30;68933;49.726;9.226;2023-11-21T10:04:36;11.4;79
79467;SHT30;68933;49.726;9.226;2023-11-21T10:06:49;11.4;79
79467;SHT30;68933;49.726;9.226;2023-11-21T10:09:02;11.4;79
79467;SHT30;68933;49.726;9.226;2023-11-21T10:11:15;11.4;79
79467;SHT30;68933;49.726;9.226;2023-11-21T10:13:28;11.4;79
79467;SHT30;68933;49.726;9.226;2023-11-21T10:15:41;11.4;79
79467;SHT30;68933;49.726;9.226;2023-11-21T10:17:55;11.4;77
79467;SHT30;68933;49.726;9.226;2023-11-21T10:20:07;11.4;77
79467;SHT30;68933;49.726;9.226;2023-11-21T10:22:20;11.5;79
79467;SHT30;68933;49.726;9.226;2023-11-21T10:24:33;11.5;79
79467;SHT30;68933;49.726;9.226;2023-11-21T10:26:46;11.5;79
79467;SHT30;68933;49.726;9.226;2023-11-21T10:29:00;11.5;79
79467;SHT30;68933;49.726;9.226;2023-11-21T10:31:12;11.5;79
79467;SHT30;68933;49.726;9.226;2023-11-21T10:33:27;11.6;79
79467;SHT30;68933;49.726;9.226;2023-11-21T10:35:39;11.6;79
79467;SHT30;68933;49.726;9.226;2023-11-21T10:37:59;11.5;79
79467;SHT30;68933;49.726;9.226;2023-11-21T10:40:04;11.5;79
79467;SHT30;68933;49.726;9.226;2023-11-21T10:42:17;11.5;79
79467;SHT30;68933;49.726;9.226;2023-11-21T10:44:30;11.5;79
79467;SHT30;68933;49.726;9.226;2023-11-21T10:46:43;11.5;79
79467;SHT30;68933;49.726;9.226;2023-11-21T10:48:56;11.5;79
79467;SHT30;68933;49.726;9.226;2023-11-21T10:51:09;11.5;79
79467;SHT30;68933;49.726;9.226;2023-11-21T10:53:22;11.6;79
79467;SHT30;68933;49.726;9.226;2023-11-21T10:55:35;11.6;79
79467;SHT30;68933;49.726;9.226;2023-11-21T10:57:48;11.6;79
79467;SHT30;68933;49.726;9.226;2023-11-21T11:00:01;11.6;79
79467;SHT30;68933;49.726;9.226;2023-11-21T11:02:18;11.6;79
79467;SHT30;68933;49.726;9.226;2023-11-21T11:04:27;11.6;80
79467;SHT30;68933;49.726;9.226;2023-11-21T11:06:40;11.6;80
79467;SHT30;68933;49.726;9.226;2023-11-21T11:08:53;11.7;79
79467;SHT30;68933;49.726;9.226;2023-11-21T11:11:06;11.7;79
79467;SHT30;68933;49.726;9.226;2023-11-21T11:13:19;11.7;79
79467;SHT30;68933;49.726;9.226;2023-11-21T11:15:32;11.7;79
79467;SHT30;68933;49.726;9.226;2023-11-21T11:17:45;11.8;79
79467;SHT30;68933;49.726;9.226;2023-11-21T11:19:58;11.8;79
79467;SHT30;68933;49.726;9.226;2023-11-21T11:22:14;11.8;79
79467;SHT30;68933;49.726;9.226;2023-11-21T11:24:33;11.9;79
79467;SHT30;68933;49.726;9.226;2023-11-21T11:26:39;11.9;79
79467;SHT30;68933;49.726;9.226;2023-11-21T11:28:52;11.9;79
79467;SHT30;68933;49.726;9.226;2023-11-21T11:31:04;11.9;79
79467;SHT30;68933;49.726;9.226;2023-11-21T11:33:20;11.9;79
79467;SHT30;68933;49.726;9.226;2023-11-21T11:35:30;11.9;79
79467;SHT30;68933;49.726;9.226;2023-11-21T11:37:42;11.9;79
79467;SHT30;68933;49.726;9.226;2023-11-21T11:39:55;11.9;79
79467;SHT30;68933;49.726;9.226;2023-11-21T11:42:10;11.9;79
79467;SHT30;68933;49.726;9.226;2023-11-21T11:44:53;12;77
79467;SHT30;68933;49.726;9.226;2023-11-21T11:46:39;12;77
79467;SHT30;68933;49.726;9.226;2023-11-21T11:48:47;12.1;77
79467;SHT30;68933;49.726;9.226;2023-11-21T11:51:00;12.1;77
79467;SHT30;68933;49.726;9.226;2023-11-21T11:53:14;12.1;77
79467;SHT30;68933;49.726;9.226;2023-11-21T11:55:26;12.1;77
79467;SHT30;68933;49.726;9.226;2023-11-21T11:57:39;12.2;77
79467;SHT30;68933;49.726;9.226;2023-11-21T12:00:08;12.2;77
79467;SHT30;68933;49.726;9.226;2023-11-21T12:02:05;12.3;81
79467;SHT30;68933;49.726;9.226;2023-11-21T12:04:26;12.3;81
79467;SHT30;68933;49.726;9.226;2023-11-21T12:06:33;12.8;80
79467;SHT30;68933;49.726;9.226;2023-11-21T12:08:44;12.8;80
79467;SHT30;68933;49.726;9.226;2023-11-21T12:10:57;12.8;80
79467;SHT30;68933;49.726;9.226;2023-11-21T12:13:11;12.9;76
79467;SHT30;68933;49.726;9.226;2023-11-21T12:15:23;12.9;76
79467;SHT30;68933;49.726;9.226;2023-11-21T12:17:36;12.9;76
79467;SHT30;68933;49.726;9.226;2023-11-21T12:19:49;12.9;76
79467;SHT30;68933;49.726;9.226;2023-11-21T12:22:02;12.8;74
79467;SHT30;68933;49.726;9.226;2023-11-21T12:24:15;12.8;74
79467;SHT30;68933;49.726;9.226;2023-11-21T12:26:28;12.7;74
79467;SHT30;68933;49.726;9.226;2023-11-21T12:28:41;12.7;74
79467;SHT30;68933;49.726;9.226;2023-11-21T12:30:54;12.7;74
79467;SHT30;68933;49.726;9.226;2023-11-21T12:33:07;12.5;75
79467;SHT30;68933;49.726;9.226;2023-11-21T12:35:21;12.5;75
79467;SHT30;68933;49.726;9.226;2023-11-21T12:37:33;12.5;76
79467;SHT30;68933;49.726;9.226;2023-11-21T12:39:46;12.5;76
79467;SHT30;68933;49.726;9.226;2023-11-21T12:41:59;12.5;76
79467;SHT30;68933;49.726;9.226;2023-11-21T12:44:12;13.2;77
79467;SHT30;68933;49.726;9.226;2023-11-21T12:46:25;13.2;77
79467;SHT30;68933;49.726;9.226;2023-11-21T12:48:38;13.4;73
79467;SHT30;68933;49.726;9.226;2023-11-21T12:50:51;13.4;73
79467;SHT30;68933;49.726;9.226;2023-11-21T12:53:05;13.4;73
79467;SHT30;68933;49.726;9.226;2023-11-21T12:55:17;13.3;72
79467;SHT30;68933;49.726;9.226;2023-11-21T12:57:30;13.3;72
79467;SHT30;68933;49.726;9.226;2023-11-21T12:59:45;13.2;72
79467;SHT30;68933;49.726;9.226;2023-11-21T13:01:56;13.2;72
79467;SHT30;68933;49.726;9.226;2023-11-21T13:04:09;13.1;72
79467;SHT30;68933;49.726;9.226;2023-11-21T13:06:22;13.1;72
79467;SHT30;68933;49.726;9.226;2023-11-21T13:08:35;13.1;72
79467;SHT30;68933;49.726;9.226;2023-11-21T13:10:49;13.1;72
79467;SHT30;68933;49.726;9.226;2023-11-21T13:13:01;13.1;72
79467;SHT30;68933;49.726;9.226;2023-11-21T13:15:14;13.1;72
79467;SHT30;68933;49.726;9.226;2023-11-21T13:17:27;13.1;72
79467;SHT30;68933;49.726;9.226;2023-11-21T13:19:40;13.1;70
79467;SHT30;68933;49.726;9.226;2023-11-21T13:21:53;13.1;70
79467;SHT30;68933;49.726;9.226;2023-11-21T13:24:06;13.1;70
79467;SHT30;68933;49.726;9.226;2023-11-21T13:26:19;12.9;72
79467;SHT30;68933;49.726;9.226;2023-11-21T13:28:32;12.9;72
79467;SHT30;68933;49.726;9.226;2023-11-21T13:30:45;12.9;72
79467;SHT30;68933;49.726;9.226;2023-11-21T13:32:58;12.9;72
79467;SHT30;68933;49.726;9.226;2023-11-21T13:35:11;12.9;72
79467;SHT30;68933;49.726;9.226;2023-11-21T13:37:24;12.8;72
79467;SHT30;68933;49.726;9.226;2023-11-21T13:39:37;12.8;72
79467;SHT30;68933;49.726;9.226;2023-11-21T13:41:50;12.7;72
79467;SHT30;68933;49.726;9.226;2023-11-21T13:44:03;12.7;72
79467;SHT30;68933;49.726;9.226;2023-11-21T13:46:16;12.6;72
79467;SHT30;68933;49.726;9.226;2023-11-21T13:48:29;12.6;72
79467;SHT30;68933;49.726;9.226;2023-11-21T13:50:42;12.6;72
79467;SHT30;68933;49.726;9.226;2023-11-21T13:52:55;12.5;71
79467;SHT30;68933;49.726;9.226;2023-11-21T13:55:08;12.5;71
79467;SHT30;68933;49.726;9.226;2023-11-21T13:57:21;12.4;72
79467;SHT30;68933;49.726;9.226;2023-11-21T13:59:34;12.4;72
79467;SHT30;68933;49.726;9.226;2023-11-21T14:01:47;12.4;72
79467;SHT30;68933;49.726;9.226;2023-11-21T14:04:01;12.4;72
79467;SHT30;68933;49.726;9.226;2023-11-21T14:06:13;12.4;72
79467;SHT30;68933;49.726;9.226;2023-11-21T14:08:26;12.4;72
79467;SHT30;68933;49.726;9.226;2023-11-21T14:10:39;12.4;72
79467;SHT30;68933;49.726;9.226;2023-11-21T14:12:52;12.3;72
79467;SHT30;68933;49.726;9.226;2023-11-21T14:15:05;12.3;72
79467;SHT30;68933;49.726;9.226;2023-11-21T14:17:18;12.3;72
79467;SHT30;68933;49.726;9.226;2023-11-21T14:19:31;12.3;72
79467;SHT30;68933;49.726;9.226;2023-11-21T14:21:44;12.3;72
79467;SHT30;68933;49.726;9.226;2023-11-21T14:23:57;12.3;72
79467;SHT30;68933;49.726;9.226;2023-11-21T14:26:10;12.2;72
79467;SHT30;68933;49.726;9.226;2023-11-21T14:28:23;12.2;72
79467;SHT30;68933;49.726;9.226;2023-11-21T14:30:36;12.2;72
79467;SHT30;68933;49.726;9.226;2023-11-21T14:32:49;12.1;71
79467;SHT30;68933;49.726;9.226;2023-11-21T14:35:02;12.1;71
79467;SHT30;68933;49.726;9.226;2023-11-21T14:37:15;12;71
79467;SHT30;68933;49.726;9.226;2023-11-21T14:39:28;12;71
79467;SHT30;68933;49.726;9.226;2023-11-21T14:41:41;12;72
79467;SHT30;68933;49.726;9.226;2023-11-21T14:43:54;12;72
79467;SHT30;68933;49.726;9.226;2023-11-21T14:46:07;11.9;72
79467;SHT30;68933;49.726;9.226;2023-11-21T14:48:20;11.9;72
79467;SHT30;68933;49.726;9.226;2023-11-21T14:50:33;11.9;72
79467;SHT30;68933;49.726;9.226;2023-11-21T14:52:46;11.9;72
79467;SHT30;68933;49.726;9.226;2023-11-21T14:54:59;11.9;72
79467;SHT30;68933;49.726;9.226;2023-11-21T14:57:13;11.8;72
79467;SHT30;68933;49.726;9.226;2023-11-21T14:59:25;11.8;72